createdAt,value
2018-06-08T00:00:53.743Z,15.53
2018-06-08T00:03:23.626Z,16.70
2018-06-08T00:05:53.054Z,16.93
2018-06-08T00:08:24.859Z,15.83
2018-06-08T00:10:56.267Z,16.30
2018-06-08T00:13:26.497Z,15.83
2018-06-08T00:15:57.630Z,15.67
2018-06-08T00:18:28.774Z,16.07
2018-06-08T00:20:58.696Z,16.60
2018-06-08T00:23:30.035Z,16.93
2018-06-08T00:25:59.802Z,18.13
2018-06-08T00:28:29.293Z,16.77
2018-06-08T00:30:59.446Z,17.20
2018-06-08T00:33:28.735Z,18.30
2018-06-08T00:35:58.096Z,18.57
2018-06-08T00:38:28.381Z,18.20
2018-06-08T00:40:58.767Z,17.77
2018-06-08T00:43:28.870Z,18.87
2018-06-08T00:45:58.233Z,20.23
2018-06-08T00:48:29.633Z,18.37
2018-06-08T00:51:00.267Z,19.60
2018-06-08T00:53:32.777Z,19.60
2018-06-08T00:56:02.817Z,20.57
2018-06-08T00:58:34.809Z,19.50
2018-06-08T01:01:04.535Z,19.37
2018-06-08T01:03:33.822Z,17.63
2018-06-08T01:06:03.467Z,18.73
2018-06-08T01:08:34.482Z,20.70
2018-06-08T01:11:04.615Z,20.83
2018-06-08T01:13:34.260Z,20.43
2018-06-08T01:16:04.054Z,19.70
2018-06-08T01:18:33.808Z,20.23
2018-06-08T01:21:02.812Z,22.03
2018-06-08T01:23:34.465Z,20.67
2018-06-08T01:26:03.990Z,21.60
2018-06-08T01:28:34.043Z,24.03
2018-06-08T01:31:03.395Z,23.03
2018-06-08T01:33:33.643Z,23.00
2018-06-08T01:36:02.652Z,23.50
2018-06-08T01:38:32.930Z,24.53
2018-06-08T01:41:01.493Z,25.83
2018-06-08T01:43:32.168Z,26.67
2018-06-08T01:46:01.082Z,25.93
2018-06-08T01:48:30.450Z,25.93
2018-06-08T01:51:01.330Z,27.23
2018-06-08T01:53:30.942Z,27.80
2018-06-08T01:56:01.390Z,26.63
2018-06-08T01:58:31.474Z,28.07
2018-06-08T02:01:01.313Z,26.73
2018-06-08T02:03:32.802Z,27.27
2018-06-08T02:06:02.155Z,28.27
2018-06-08T02:08:33.863Z,28.93
2018-06-08T02:11:03.395Z,29.93
2018-06-08T02:13:35.757Z,30.90
2018-06-08T02:16:06.685Z,31.20
2018-06-08T02:18:38.674Z,31.90
2018-06-08T02:21:10.699Z,32.23
2018-06-08T02:23:41.575Z,31.20
2018-06-08T02:26:12.670Z,32.00
2018-06-08T02:28:43.659Z,33.10
2018-06-08T02:31:12.459Z,30.53
2018-06-08T02:33:42.492Z,31.33
2018-06-08T02:36:12.291Z,33.20
2018-06-08T02:38:43.386Z,33.80
2018-06-08T02:41:12.942Z,33.43
2018-06-08T02:43:42.199Z,34.07
2018-06-08T02:46:12.380Z,34.40
2018-06-08T02:48:40.866Z,33.97
2018-06-08T02:51:10.612Z,35.13
2018-06-08T02:53:40.331Z,34.47
2018-06-08T02:56:10.166Z,36.03
2018-06-08T02:58:40.843Z,34.33
2018-06-08T03:01:12.566Z,35.43
2018-06-08T03:03:41.550Z,35.70
2018-06-08T03:06:11.262Z,35.23
2018-06-08T03:08:42.101Z,36.67
2018-06-08T03:11:11.256Z,36.00
2018-06-08T03:13:42.155Z,34.93
2018-06-08T03:16:11.034Z,34.73
2018-06-08T03:18:39.523Z,35.70
2018-06-08T03:21:10.015Z,36.43
2018-06-08T03:23:41.011Z,36.53
2018-06-08T03:26:11.813Z,38.30
2018-06-08T03:28:41.054Z,37.57
2018-06-08T03:31:10.036Z,37.97
2018-06-08T03:33:38.590Z,37.27
2018-06-08T03:36:08.486Z,37.27
2018-06-08T03:38:38.493Z,38.33
2018-06-08T03:41:10.067Z,38.53
2018-06-08T03:43:39.668Z,36.90
2018-06-08T03:46:09.614Z,38.33
2018-06-08T03:48:39.466Z,36.43
2018-06-08T03:51:10.574Z,36.87
2018-06-08T03:53:40.026Z,38.70
2018-06-08T03:56:10.252Z,38.87
2018-06-08T03:58:41.191Z,40.73
2018-06-08T04:01:10.007Z,37.90
2018-06-08T04:03:40.040Z,40.47
2018-06-08T04:06:09.121Z,39.57
2018-06-08T04:08:40.408Z,38.97
2018-06-08T04:11:10.494Z,40.60
2018-06-08T04:13:40.306Z,40.50
2018-06-08T04:16:10.397Z,39.90
2018-06-08T04:18:40.062Z,38.17
2018-06-08T04:21:09.386Z,38.73
2018-06-08T04:23:40.487Z,41.10
2018-06-08T04:26:11.147Z,39.00
2018-06-08T04:28:41.426Z,39.60
2018-06-08T04:31:11.386Z,38.13
2018-06-08T04:33:42.374Z,38.80
2018-06-08T04:36:12.076Z,41.10
2018-06-08T04:38:42.558Z,51.97
2018-06-08T04:41:12.967Z,49.73
2018-06-08T04:43:43.596Z,49.20
2018-06-08T04:46:12.838Z,49.50
2018-06-08T04:48:45.738Z,59.20
2018-06-08T04:51:14.579Z,59.87
2018-06-08T04:53:45.906Z,61.70
2018-06-08T04:56:18.907Z,64.27
2018-06-08T04:58:50.174Z,54.63
2018-06-08T05:01:20.191Z,53.50
2018-06-08T05:03:50.436Z,56.40
2018-06-08T05:06:20.614Z,50.33
2018-06-08T05:08:51.095Z,53.30
2018-06-08T05:11:21.641Z,55.27
2018-06-08T05:13:53.019Z,55.37
2018-06-08T05:16:23.935Z,57.17
2018-06-08T05:18:55.250Z,50.20
2018-06-08T05:21:25.694Z,48.90
2018-06-08T05:23:56.763Z,58.70
2018-06-08T05:26:27.046Z,52.87
2018-06-08T05:28:58.449Z,50.77
2018-06-08T05:31:28.979Z,54.27
2018-06-08T05:33:58.964Z,52.43
2018-06-08T05:36:29.530Z,49.87
2018-06-08T05:39:00.722Z,47.33
2018-06-08T05:41:29.726Z,47.87
2018-06-08T05:44:00.969Z,48.30
2018-06-08T05:46:30.181Z,48.00
2018-06-08T05:49:01.874Z,47.73
2018-06-08T05:51:30.811Z,49.07
2018-06-08T05:53:59.323Z,47.37
2018-06-08T05:56:28.371Z,47.43
2018-06-08T05:58:59.895Z,49.73
2018-06-08T06:01:29.358Z,48.77
2018-06-08T06:03:59.399Z,48.80
2018-06-08T06:06:29.151Z,50.30
2018-06-08T06:08:58.855Z,50.93
2018-06-08T06:11:27.659Z,52.13
2018-06-08T06:13:56.561Z,53.03
2018-06-08T07:47:23.427Z,39.83
2018-06-08T07:49:51.906Z,41.50
2018-06-08T07:52:22.051Z,40.83
2018-06-08T07:54:50.759Z,40.80
2018-06-08T07:57:19.562Z,41.57
2018-06-08T07:59:49.550Z,42.67
2018-06-08T08:02:18.842Z,42.70
2018-06-08T08:04:48.179Z,40.07
2018-06-08T08:07:18.459Z,41.47
2018-06-08T08:09:47.427Z,42.60
2018-06-08T08:12:18.299Z,42.50
2018-06-08T08:14:47.860Z,40.57
2018-06-08T08:17:18.574Z,41.67
2018-06-08T08:19:48.436Z,42.10
2018-06-08T08:22:18.745Z,41.17
2018-06-08T08:24:48.939Z,41.00
2018-06-08T08:27:18.760Z,42.80
2018-06-08T08:29:49.120Z,41.60
2018-06-08T08:32:21.446Z,42.40
2018-06-08T08:34:52.290Z,45.60
2018-06-08T08:37:21.830Z,43.07
2018-06-08T08:39:50.344Z,44.33
2018-06-08T08:42:21.264Z,45.77
2018-06-08T08:44:50.425Z,46.57
2018-06-08T08:47:19.274Z,46.27
2018-06-08T08:49:47.815Z,43.93
2018-06-08T08:52:16.335Z,44.67
2018-06-08T08:54:44.866Z,47.37
2018-06-08T08:57:13.382Z,48.17
2018-06-08T08:59:42.255Z,47.53
2018-06-08T09:02:10.436Z,48.43
2018-06-08T09:06:09.017Z,48.50
2018-06-08T09:08:38.414Z,49.67
2018-06-08T09:11:06.955Z,48.63
2018-06-08T09:13:35.858Z,48.43
2018-06-08T09:16:04.379Z,46.63
2018-06-08T09:18:32.893Z,45.93
2018-06-08T09:21:01.746Z,47.60
2018-06-08T09:23:30.616Z,47.30
2018-06-08T09:25:59.479Z,48.87
2018-06-08T09:28:27.994Z,50.00
2018-06-08T09:30:56.498Z,52.47
2018-06-08T09:33:26.166Z,52.63
2018-06-08T09:35:54.680Z,54.77
2018-06-08T09:38:22.862Z,53.37
2018-06-08T09:40:52.857Z,50.50
2018-06-08T09:43:22.697Z,51.93
2018-06-08T09:45:51.805Z,48.43
2018-06-08T09:48:20.978Z,49.93
2018-06-08T09:50:49.497Z,46.80
2018-06-08T09:53:18.690Z,49.13
2018-06-08T09:55:47.447Z,48.83
2018-06-08T09:58:16.615Z,49.00
2018-06-08T10:00:45.125Z,50.70
2018-06-08T10:03:15.682Z,51.13
2018-06-08T10:05:44.533Z,52.23
2018-06-08T10:08:14.681Z,49.03
2018-06-08T10:10:43.482Z,47.90
2018-06-08T10:13:14.855Z,49.03
2018-06-08T10:15:46.063Z,51.90
2018-06-08T10:18:15.251Z,53.63
2018-06-08T10:20:45.258Z,52.17
2018-06-08T10:23:14.903Z,49.60
2018-06-08T10:25:43.610Z,51.17
2018-06-08T10:28:13.034Z,51.17
2018-06-08T10:30:41.643Z,49.77
2018-06-08T10:33:10.947Z,52.57
2018-06-08T10:35:39.482Z,54.13
2018-06-08T10:38:07.992Z,52.93
2018-06-08T10:40:36.867Z,53.80
2018-06-08T10:43:05.539Z,55.47
2018-06-08T10:45:34.769Z,52.80
2018-06-08T10:48:03.562Z,53.07
2018-06-08T10:50:32.521Z,54.57
2018-06-08T10:53:01.030Z,57.13
2018-06-08T10:55:31.651Z,54.73
2018-06-08T10:58:00.767Z,56.27
2018-06-08T11:00:30.245Z,57.27
2018-06-08T11:03:00.388Z,61.03
2018-06-08T11:05:28.912Z,60.17
2018-06-08T11:07:58.452Z,60.83
2018-06-08T11:10:27.935Z,63.87
2018-06-08T11:59:36.675Z,89.80
2018-06-08T12:02:05.594Z,90.73
2018-06-08T12:04:34.252Z,89.13
2018-06-08T12:07:02.739Z,77.50
2018-06-08T12:09:31.759Z,79.30
2018-06-08T12:12:00.234Z,76.63
2018-06-08T12:14:28.710Z,79.13
2018-06-08T12:16:57.472Z,81.93
2018-06-08T12:19:25.945Z,84.77
2018-06-08T12:21:54.455Z,83.57
2018-06-08T12:24:23.322Z,78.00
2018-06-08T12:26:52.238Z,75.97
2018-06-08T12:29:20.703Z,75.03
2018-06-08T12:31:49.412Z,71.30
2018-06-08T12:34:17.906Z,74.50
2018-06-08T12:36:46.374Z,71.13
2018-06-08T13:25:56.535Z,56.77
2018-06-08T13:28:25.507Z,65.37
2018-06-08T13:30:54.092Z,61.53
2018-06-08T13:33:22.903Z,57.70
2018-06-08T13:35:52.819Z,58.07
2018-06-08T13:38:22.022Z,52.33
2018-06-08T13:40:51.684Z,52.07
2018-06-08T13:43:20.199Z,48.93
2018-06-08T13:45:48.994Z,48.27
2018-06-08T13:48:19.642Z,50.77
2018-06-08T13:50:48.177Z,48.13
2018-06-08T13:53:18.339Z,47.93
2018-06-08T13:55:47.386Z,50.77
2018-06-08T13:58:15.926Z,48.73
2018-06-08T14:00:44.414Z,47.90
2018-06-08T14:03:12.969Z,48.47
2018-06-08T14:05:41.808Z,49.87
2018-06-08T14:08:10.910Z,49.87
2018-06-08T14:10:39.381Z,49.57
2018-06-08T14:13:07.868Z,46.77
2018-06-08T14:15:36.337Z,48.77
2018-06-08T14:18:05.128Z,48.43
2018-06-08T14:20:33.697Z,44.47
2018-06-08T14:23:02.250Z,44.77
2018-06-08T14:25:30.776Z,45.17
2018-06-08T14:28:00.027Z,43.53
2018-06-08T14:30:30.982Z,41.07
2018-06-08T14:33:00.316Z,42.07
2018-06-08T14:35:29.707Z,38.50
2018-06-08T14:37:58.210Z,41.33
2018-06-08T14:40:27.722Z,39.80
2018-06-08T14:42:59.959Z,38.53
2018-06-08T14:45:29.137Z,38.17
2018-06-08T14:47:58.925Z,38.00
2018-06-08T14:50:27.875Z,39.97
2018-06-08T14:52:59.423Z,38.67
2018-06-08T14:55:29.797Z,37.60
2018-06-08T14:58:00.228Z,35.80
2018-06-08T15:00:29.342Z,38.70
2018-06-08T15:02:58.778Z,36.27
2018-06-08T15:05:28.796Z,34.63
2018-06-08T15:07:57.532Z,37.47
2018-06-08T15:10:26.702Z,36.83
2018-06-08T15:12:55.926Z,32.87
2018-06-08T15:15:25.375Z,34.07
2018-06-08T15:17:55.275Z,32.33
2018-06-08T15:20:26.637Z,34.07
2018-06-08T15:22:56.483Z,34.83
2018-06-08T15:25:26.979Z,33.67
2018-06-08T15:27:57.452Z,34.47
2018-06-08T15:30:26.959Z,35.67
2018-06-08T15:32:57.158Z,34.70
2018-06-08T15:35:26.131Z,33.63
2018-06-08T15:37:55.362Z,33.17
2018-06-08T15:40:24.351Z,34.00
2018-06-08T15:42:53.003Z,33.73
2018-06-08T15:45:22.018Z,34.97
2018-06-08T15:47:50.964Z,33.63
2018-06-08T15:50:19.760Z,32.77
2018-06-08T15:52:48.587Z,33.50
2018-06-08T15:55:17.115Z,33.80
2018-06-08T15:57:45.967Z,33.57
2018-06-08T16:00:15.158Z,32.80
2018-06-08T16:02:43.983Z,32.73
2018-06-08T16:05:13.350Z,32.13
2018-06-08T16:07:43.858Z,29.57
2018-06-08T16:10:13.581Z,30.77
2018-06-08T16:12:43.364Z,31.00
2018-06-08T16:15:13.630Z,31.57
2018-06-08T16:17:43.754Z,31.63
2018-06-08T16:20:15.342Z,31.17
2018-06-08T16:22:47.717Z,31.33
2018-06-08T16:25:18.104Z,29.20
2018-06-08T16:27:46.619Z,29.60
2018-06-08T16:30:20.007Z,29.17
2018-06-08T16:32:54.280Z,28.33
2018-06-08T16:35:23.866Z,31.07
2018-06-08T16:37:54.555Z,30.93
2018-06-08T16:40:23.874Z,30.27
2018-06-08T16:42:54.230Z,29.93
2018-06-08T16:45:24.387Z,30.00
2018-06-08T16:47:53.805Z,29.80
2018-06-08T16:50:24.974Z,28.23
2018-06-08T16:52:55.485Z,28.90
2018-06-08T16:55:26.530Z,29.23
2018-06-08T16:57:56.952Z,28.80
2018-06-08T17:00:29.045Z,28.47
2018-06-08T17:03:00.575Z,29.97
2018-06-08T17:05:31.650Z,29.70
2018-06-08T17:08:00.824Z,28.97
2018-06-08T17:10:29.329Z,28.93
2018-06-08T17:12:59.618Z,28.83
2018-06-08T17:15:28.910Z,29.90
2018-06-08T17:17:58.328Z,27.57
2018-06-08T17:20:27.016Z,27.27
2018-06-08T17:22:58.569Z,28.13
2018-06-08T17:25:31.738Z,27.43
2018-06-08T17:28:04.883Z,27.70
2018-06-08T17:30:36.989Z,28.33
2018-06-08T17:33:08.015Z,26.47
2018-06-08T17:35:38.530Z,26.83
2018-06-08T17:38:07.747Z,28.37
2018-06-08T17:40:39.131Z,27.73
2018-06-08T17:43:11.488Z,27.57
2018-06-08T17:45:41.160Z,28.33
2018-06-08T17:48:10.774Z,26.53
2018-06-08T17:50:41.518Z,27.73
2018-06-08T17:53:11.528Z,27.37
2018-06-08T17:55:42.995Z,26.37
2018-06-08T17:58:14.862Z,29.93
2018-06-08T18:00:47.670Z,29.00
2018-06-08T18:03:19.955Z,27.87
2018-06-08T18:05:49.795Z,28.87
2018-06-08T18:08:22.030Z,28.63
2018-06-08T18:10:52.546Z,29.23
2018-06-08T18:13:22.793Z,28.63
2018-06-08T18:15:52.840Z,30.10
2018-06-08T18:18:23.578Z,31.23
2018-06-08T18:20:56.154Z,31.27
2018-06-08T18:23:28.105Z,31.37
2018-06-08T18:26:00.539Z,33.77
2018-06-08T18:28:31.022Z,31.80
2018-06-08T18:31:01.184Z,34.37
2018-06-08T18:33:31.829Z,34.50
2018-06-08T18:36:03.025Z,34.43
2018-06-08T18:39:02.798Z,36.43
2018-06-08T18:41:33.019Z,36.70
2018-06-08T18:44:04.139Z,38.30
2018-06-08T18:46:35.266Z,38.97
2018-06-08T18:49:05.310Z,39.03
2018-06-08T18:51:36.642Z,40.57
2018-06-08T18:54:07.019Z,42.07
2018-06-08T18:56:37.678Z,42.90
2018-06-08T18:59:07.626Z,45.40
2018-06-08T19:01:40.195Z,45.50
2018-06-08T19:04:11.134Z,46.27
2018-06-08T19:06:41.230Z,46.87
2018-06-08T19:09:12.060Z,47.07
2018-06-08T19:11:44.560Z,48.70
2018-06-08T19:14:13.919Z,48.00
2018-06-08T19:16:44.578Z,49.67
2018-06-08T19:19:15.175Z,52.47
2018-06-08T19:21:49.505Z,53.90
2018-06-08T19:24:20.831Z,53.70
2018-06-08T19:26:51.359Z,54.17
2018-06-08T19:29:22.786Z,55.77
2018-06-08T19:31:53.359Z,56.47
2018-06-08T19:34:24.651Z,56.67
2018-06-08T19:36:55.451Z,57.03
2018-06-08T19:39:27.459Z,56.70
2018-06-08T19:41:59.903Z,56.50
2018-06-08T19:44:29.830Z,58.27
2018-06-08T19:47:01.445Z,57.33
2018-06-08T19:49:30.906Z,58.33
2018-06-08T19:52:00.818Z,59.47
2018-06-08T19:54:29.393Z,59.90
2018-06-08T19:58:27.098Z,60.50
2018-06-08T20:00:55.616Z,65.10
2018-06-08T20:03:24.732Z,66.47
2018-06-08T20:05:53.863Z,68.30
2018-06-08T20:08:22.426Z,69.40
2018-06-08T20:10:50.974Z,67.90
2018-06-08T20:13:19.478Z,71.40
2018-06-08T20:15:48.376Z,76.10
2018-06-08T20:18:17.563Z,76.97
2018-06-08T20:20:46.394Z,75.77
2018-06-08T20:23:15.207Z,82.60
2018-06-08T20:25:44.292Z,86.90
2018-06-08T20:28:12.774Z,92.97
2018-06-08T20:30:41.257Z,95.93
2018-06-08T20:33:09.739Z,101.70
2018-06-08T20:35:38.251Z,108.50
2018-06-08T20:38:07.107Z,104.53
2018-06-08T20:40:35.838Z,102.00
2018-06-08T20:43:04.587Z,104.93
2018-06-08T20:45:34.090Z,99.70
2018-06-08T20:48:02.618Z,89.67
2018-06-08T20:50:31.176Z,90.87
2018-06-08T20:53:00.058Z,87.20
2018-06-08T20:55:28.820Z,80.43
2018-06-08T20:58:01.599Z,75.27
2018-06-08T21:00:30.138Z,76.57
2018-06-08T21:02:59.994Z,75.50
2018-06-08T21:05:28.892Z,77.27
2018-06-08T21:07:57.395Z,75.23
2018-06-08T21:10:25.911Z,70.17
2018-06-08T21:12:54.422Z,71.57
2018-06-08T21:15:22.967Z,77.50
2018-06-08T21:17:51.888Z,78.90
2018-06-08T21:20:20.379Z,75.63
2018-06-08T21:22:49.295Z,74.67
2018-06-08T21:25:18.177Z,44.83
2018-06-08T21:27:47.070Z,48.40
2018-06-08T21:30:15.547Z,39.43
2018-06-08T21:32:44.066Z,31.60
2018-06-08T21:35:12.566Z,33.57
2018-06-08T21:37:41.070Z,32.73
2018-06-08T21:40:09.585Z,30.33
2018-06-08T21:42:38.310Z,36.23
2018-06-08T21:45:06.808Z,31.23
2018-06-08T21:47:34.990Z,34.10
2018-06-08T21:50:03.831Z,35.27
2018-06-08T21:52:32.391Z,38.43
2018-06-08T21:55:01.551Z,39.23
2018-06-08T21:57:30.707Z,39.03
2018-06-08T22:00:00.921Z,43.53
2018-06-08T22:02:32.973Z,40.90
2018-06-08T22:05:01.591Z,43.20
2018-06-08T22:07:30.801Z,42.93
2018-06-08T22:10:00.963Z,42.37
2018-06-08T22:12:30.791Z,45.87
2018-06-08T22:14:59.908Z,45.37
2018-06-08T22:17:28.394Z,45.03
2018-06-08T22:19:56.849Z,46.90
2018-06-08T22:22:25.717Z,46.50
2018-06-08T22:24:54.891Z,47.03
2018-06-08T22:27:23.620Z,49.33
2018-06-08T22:29:52.356Z,49.37
2018-06-08T22:32:22.094Z,49.60
2018-06-08T22:34:51.503Z,45.00
2018-06-08T22:37:22.947Z,44.50
2018-06-08T22:39:52.832Z,44.43
2018-06-08T22:42:22.307Z,40.73
2018-06-08T22:44:53.679Z,38.20
2018-06-08T22:47:22.267Z,42.63
2018-06-08T22:49:51.875Z,41.97
2018-06-08T22:52:21.406Z,43.03
2018-06-08T22:54:49.899Z,40.87
2018-06-08T22:57:18.076Z,41.33
2018-06-08T22:59:48.489Z,41.30
2018-06-08T23:02:19.727Z,41.47
2018-06-08T23:04:51.194Z,44.43
2018-06-08T23:07:20.263Z,43.53
2018-06-08T23:09:50.199Z,40.00
2018-06-08T23:12:19.006Z,40.93
2018-06-08T23:14:49.151Z,36.87
2018-06-08T23:17:18.312Z,31.50
2018-06-08T23:19:47.835Z,34.53
2018-06-08T23:22:19.324Z,32.40
2018-06-08T23:24:49.546Z,30.33
2018-06-08T23:27:18.758Z,33.23
2018-06-08T23:29:48.265Z,31.33
2018-06-08T23:32:16.742Z,29.80
2018-06-08T23:34:45.234Z,32.43
2018-06-08T23:37:13.697Z,27.87
2018-06-08T23:39:43.727Z,22.80
2018-06-08T23:42:12.935Z,26.43
2018-06-08T23:44:42.119Z,23.87
2018-06-08T23:47:12.300Z,23.37
2018-06-08T23:49:43.115Z,23.37
2018-06-08T23:52:13.096Z,26.03
2018-06-08T23:54:42.567Z,24.40
2018-06-08T23:57:11.672Z,22.33
